FredonyerEastRWIS Atmospheric Data: 10/09/2019 Summary  Detailed Graphs  Station List

  Temperature     Wind Precipitation Visibility
Timestamp Air Wet
Bulb
Dew-
point
24-hr
Max
24-hr
Min
Relative
Humidity
Atmospheric
Pressure
Avg
Speed
Avg
Dir
Spot
Speed
Spot
Dir
Max
Speed
Max
Dir
  Rate Situation Start End 1 hr 3 hr 6 hr 12 hr 24 hr   Situation
Date Time °F °F °F °F °F % in Hg mph ° mph ° mph ° Y/N in/hr text Date Time Date Time in in in in in mi text
10/09/2019 12:08 AM 49.82 42.44 33.44 70.34 39.02 52.0 Not Reported 2.24 SW 2.68 W 5.82 SW No 0.000 No Precipitation 01/01/1970 12:00 AM 01/01/1970 12:00 AM 0.000 0.000 0.000 0.000 0.000 Not Reported Not Reported
10/09/2019 12:25 AM 49.10 42.08 33.08 70.34 39.02 53.0 Not Reported 3.13 W 5.59 SW 5.59 SW No 0.000 No Precipitation 01/01/1970 12:00 AM 01/01/1970 12:00 AM 0.000 0.000 0.000 0.000 0.000 Not Reported Not Reported
10/09/2019 12:38 AM 48.92 41.72 32.90 70.34 39.02 53.0 Not Reported 4.92 S 6.04 SW 6.49 SW No 0.000 No Precipitation 01/01/1970 12:00 AM 01/01/1970 12:00 AM 0.000 0.000 0.000 0.000 0.000 Not Reported Not Reported
10/09/2019 12:53 AM 48.56 41.36 32.36 70.34 39.02 53.0 Not Reported 3.36 NW 2.68 S 6.71 W No 0.000 No Precipitation 01/01/1970 12:00 AM 01/01/1970 12:00 AM 0.000 0.000 0.000 0.000 0.000 Not Reported Not Reported
10/09/2019 01:09 AM 49.64 41.54 31.10 70.34 39.02 48.0 Not Reported 5.37 NW 4.25 W 7.16 NW No 0.000 No Precipitation 01/01/1970 12:00 AM 01/01/1970 12:00 AM 0.000 0.000 0.000 0.000 0.000 Not Reported Not Reported
10/09/2019 01:24 AM 49.10 40.82 29.84 70.34 39.02 46.0 Not Reported 3.13 W 3.80 W 4.47 SW No 0.000 No Precipitation 01/01/1970 12:00 AM 01/01/1970 12:00 AM 0.000 0.000 0.000 0.000 0.000 Not Reported Not Reported
10/09/2019 01:38 AM 45.50 39.38 31.46 70.34 39.02 57.0 Not Reported 1.79 SW 0.45 W 3.13 W No 0.000 No Precipitation 01/01/1970 12:00 AM 01/01/1970 12:00 AM 0.000 0.000 0.000 0.000 0.000 Not Reported Not Reported
10/09/2019 01:53 AM 48.20 39.74 27.68 70.34 39.02 44.0 Not Reported 4.03 W 2.01 SW 5.37 W No 0.000 No Precipitation 01/01/1970 12:00 AM 01/01/1970 12:00 AM 0.000 0.000 0.000 0.000 0.000 Not Reported Not Reported
10/09/2019 02:08 AM 47.48 39.20 27.32 70.34 39.02 44.0 Not Reported 4.03 NW 4.25 W 5.82 W No 0.000 No Precipitation 01/01/1970 12:00 AM 01/01/1970 12:00 AM 0.000 0.000 0.000 0.000 0.000 Not Reported Not Reported
10/09/2019 02:24 AM 46.22 38.30 27.50 70.34 39.02 47.0 Not Reported 3.80 NW 3.13 W 6.93 W No 0.000 No Precipitation 01/01/1970 12:00 AM 01/01/1970 12:00 AM 0.000 0.000 0.000 0.000 0.000 Not Reported Not Reported
10/09/2019 02:38 AM 45.14 37.76 26.96 70.34 39.02 48.0 Not Reported 1.79 SW 3.13 NW 5.59 W No 0.000 No Precipitation 01/01/1970 12:00 AM 01/01/1970 12:00 AM 0.000 0.000 0.000 0.000 0.000 Not Reported Not Reported
10/09/2019 02:53 AM 44.42 37.40 26.96 70.34 39.02 49.0 Not Reported 2.46 W 3.13 NW 6.71 NW No 0.000 No Precipitation 01/01/1970 12:00 AM 01/01/1970 12:00 AM 0.000 0.000 0.000 0.000 0.000 Not Reported Not Reported
10/09/2019 03:09 AM 42.98 37.04 28.58 70.34 39.02 56.0 Not Reported 3.80 NW 2.68 NW 8.05 NW No 0.000 No Precipitation 01/01/1970 12:00 AM 01/01/1970 12:00 AM 0.000 0.000 0.000 0.000 0.000 Not Reported Not Reported
10/09/2019 03:24 AM 41.54 36.68 29.84 70.34 39.02 62.0 Not Reported 5.82 W 1.79 N 10.96 N No 0.000 No Precipitation 01/01/1970 12:00 AM 01/01/1970 12:00 AM 0.000 0.000 0.000 0.000 0.000 Not Reported Not Reported
10/09/2019 03:38 AM 40.46 35.96 29.84 70.34 39.02 64.0 Not Reported 3.58 W 6.49 NW 6.93 NW No 0.000 No Precipitation 01/01/1970 12:00 AM 01/01/1970 12:00 AM 0.000 0.000 0.000 0.000 0.000 Not Reported Not Reported
10/09/2019 03:53 AM 39.20 35.24 29.66 70.34 39.02 68.0 Not Reported 3.80 W 1.12 SW 6.93 N No 0.000 No Precipitation 01/01/1970 12:00 AM 01/01/1970 12:00 AM 0.000 0.000 0.000 0.000 0.000 Not Reported Not Reported
10/09/2019 04:08 AM 37.76 33.98 28.04 70.34 37.76 66.0 Not Reported 5.37 N 5.59 N 10.51 N No 0.000 No Precipitation 01/01/1970 12:00 AM 01/01/1970 12:00 AM 0.000 0.000 0.000 0.000 0.000 Not Reported Not Reported
10/09/2019 04:24 AM 36.68 33.08 27.32 70.34 36.68 68.0 Not Reported 4.70 N 3.36 N 10.07 N No 0.000 No Precipitation 01/01/1970 12:00 AM 01/01/1970 12:00 AM 0.000 0.000 0.000 0.000 0.000 Not Reported Not Reported
10/09/2019 04:38 AM 35.96 32.18 25.70 70.34 35.96 65.0 Not Reported 2.91 W 6.04 N 7.61 NW No 0.000 No Precipitation 01/01/1970 12:00 AM 01/01/1970 12:00 AM 0.000 0.000 0.000 0.000 0.000 Not Reported Not Reported
10/09/2019 04:53 AM 35.60 31.64 24.26 70.34 35.60 62.0 Not Reported 6.93 NW 3.13 NW 8.72 NW No 0.000 No Precipitation 01/01/1970 12:00 AM 01/01/1970 12:00 AM 0.000 0.000 0.000 0.000 0.000 Not Reported Not Reported
10/09/2019 05:08 AM 35.06 31.10 23.72 70.34 35.06 62.0 Not Reported 3.80 SE 3.80 NE 7.38 N No 0.000 No Precipitation 01/01/1970 12:00 AM 01/01/1970 12:00 AM 0.000 0.000 0.000 0.000 0.000 Not Reported Not Reported
10/09/2019 05:23 AM 34.34 30.38 22.82 70.34 34.34 61.0 Not Reported 3.80 NE 1.34 W 6.71 S No 0.000 No Precipitation 01/01/1970 12:00 AM 01/01/1970 12:00 AM 0.000 0.000 0.000 0.000 0.000 Not Reported Not Reported
10/09/2019 05:38 AM 34.16 30.02 22.28 70.34 33.98 60.0 Not Reported 3.58 SW 2.68 W 6.04 SW No 0.000 No Precipitation 01/01/1970 12:00 AM 01/01/1970 12:00 AM 0.000 0.000 0.000 0.000 0.000 Not Reported Not Reported
10/09/2019 05:53 AM 33.80 29.84 21.92 70.34 33.80 61.0 Not Reported 3.58 W 4.70 NW 6.49 S No 0.000 No Precipitation 01/01/1970 12:00 AM 01/01/1970 12:00 AM 0.000 0.000 0.000 0.000 0.000 Not Reported Not Reported
10/09/2019 06:08 AM 33.80 29.84 22.28 70.34 33.80 61.0 Not Reported 6.04 N 6.26 N 10.07 NW No 0.000 No Precipitation 01/01/1970 12:00 AM 01/01/1970 12:00 AM 0.000 0.000 0.000 0.000 0.000 Not Reported Not Reported
10/09/2019 06:24 AM 33.08 29.48 22.46 70.34 32.90 64.0 Not Reported 3.36 N 2.46 N 6.04 N No 0.000 No Precipitation 01/01/1970 12:00 AM 01/01/1970 12:00 AM 0.000 0.000 0.000 0.000 0.000 Not Reported Not Reported
10/09/2019 06:38 AM 32.36 29.12 22.64 70.34 32.36 66.0 Not Reported 1.12 S 0.45 NW 5.59 NW No 0.000 No Precipitation 01/01/1970 12:00 AM 01/01/1970 12:00 AM 0.000 0.000 0.000 0.000 0.000 Not Reported Not Reported
10/09/2019 06:53 AM 31.82 28.58 22.28 70.34 31.82 67.0 Not Reported 2.01 NE 2.24 S 4.70 NW No 0.000 No Precipitation 01/01/1970 12:00 AM 01/01/1970 12:00 AM 0.000 0.000 0.000 0.000 0.000 Not Reported Not Reported
10/09/2019 07:08 AM 29.30 26.78 21.92 70.34 29.30 73.0 Not Reported 0.22 N 0.22 N 2.01 SE No 0.000 No Precipitation 01/01/1970 12:00 AM 01/01/1970 12:00 AM 0.000 0.000 0.000 0.000 0.000 Not Reported Not Reported
10/09/2019 07:23 AM 28.04 26.06 21.74 70.34 28.04 77.0 Not Reported 0.67 NE 0.00 SE 2.01 NW No 0.000 No Precipitation 01/01/1970 12:00 AM 01/01/1970 12:00 AM 0.000 0.000 0.000 0.000 0.000 Not Reported Not Reported
10/09/2019 07:41 AM 27.50 25.70 21.92 70.34 27.50 79.0 Not Reported 0.00 N 0.00 SW 1.79 NW No 0.000 No Precipitation 01/01/1970 12:00 AM 01/01/1970 12:00 AM 0.000 0.000 0.000 0.000 0.000 Not Reported Not Reported
10/09/2019 07:53 AM 27.68 25.88 22.10 70.34 27.32 79.0 Not Reported 0.00 N 0.00 SW 0.00 SW No 0.000 No Precipitation 01/01/1970 12:00 AM 01/01/1970 12:00 AM 0.000 0.000 0.000 0.000 0.000 Not Reported Not Reported
10/09/2019 08:09 AM 28.40 26.42 22.28 70.34 27.32 77.0 Not Reported 1.12 S 1.12 SE 1.79 S No 0.000 No Precipitation 01/01/1970 12:00 AM 01/01/1970 12:00 AM 0.000 0.000 0.000 0.000 0.000 Not Reported Not Reported
10/09/2019 08:23 AM 30.92 28.22 22.82 70.34 27.32 71.0 Not Reported 0.89 SE 2.46 S 2.46 S No 0.000 No Precipitation 01/01/1970 12:00 AM 01/01/1970 12:00 AM 0.000 0.000 0.000 0.000 0.000 Not Reported Not Reported
10/09/2019 08:38 AM 33.26 29.84 23.18 70.34 27.32 65.0 Not Reported 1.34 SE 1.34 NW 2.24 NE No 0.000 No Precipitation 01/01/1970 12:00 AM 01/01/1970 12:00 AM 0.000 0.000 0.000 0.000 0.000 Not Reported Not Reported
10/09/2019 08:53 AM 35.24 30.92 22.64 70.34 27.32 59.0 Not Reported 2.68 SE 4.92 SE 4.92 SE No 0.000 No Precipitation 01/01/1970 12:00 AM 01/01/1970 12:00 AM 0.000 0.000 0.000 0.000 0.000 Not Reported Not Reported
10/09/2019 09:08 AM 35.78 30.74 20.84 70.34 27.32 53.0 Not Reported 4.25 E 1.57 E 6.71 SE No 0.000 No Precipitation 01/01/1970 12:00 AM 01/01/1970 12:00 AM 0.000 0.000 0.000 0.000 0.000 Not Reported Not Reported
10/09/2019 09:23 AM 36.86 31.46 21.20 70.34 27.32 52.0 Not Reported 2.01 SE 5.37 SE 5.37 SE No 0.000 No Precipitation 01/01/1970 12:00 AM 01/01/1970 12:00 AM 0.000 0.000 0.000 0.000 0.000 Not Reported Not Reported
10/09/2019 09:39 AM 36.86 31.46 21.02 70.34 27.32 51.0 Not Reported 3.36 SE 2.01 NE 6.93 SE No 0.000 No Precipitation 01/01/1970 12:00 AM 01/01/1970 12:00 AM 0.000 0.000 0.000 0.000 0.000 Not Reported Not Reported
10/09/2019 09:53 AM 38.12 32.00 20.84 70.34 27.32 48.0 Not Reported 2.24 NE 4.25 E 5.82 E No 0.000 No Precipitation 01/01/1970 12:00 AM 01/01/1970 12:00 AM 0.000 0.000 0.000 0.000 0.000 Not Reported Not Reported
10/09/2019 10:08 AM 39.20 32.18 19.40 70.34 27.32 44.0 Not Reported 1.79 NE 0.67 SW 4.47 E No 0.000 No Precipitation 01/01/1970 12:00 AM 01/01/1970 12:00 AM 0.000 0.000 0.000 0.000 0.000 Not Reported Not Reported
10/09/2019 10:24 AM 40.46 32.90 18.86 70.34 27.32 40.0 Not Reported 2.68 SE 2.24 S 8.50 E No 0.000 No Precipitation 01/01/1970 12:00 AM 01/01/1970 12:00 AM 0.000 0.000 0.000 0.000 0.000 Not Reported Not Reported
10/09/2019 10:38 AM 42.26 33.26 16.52 70.34 27.32 34.0 Not Reported 2.91 SE 2.91 S 7.38 NE No 0.000 No Precipitation 01/01/1970 12:00 AM 01/01/1970 12:00 AM 0.000 0.000 0.000 0.000 0.000 Not Reported Not Reported
10/09/2019 10:53 AM 42.08 32.90 15.08 70.34 27.32 32.0 Not Reported 4.25 NE 3.58 SE 6.71 E No 0.000 No Precipitation 01/01/1970 12:00 AM 01/01/1970 12:00 AM 0.000 0.000 0.000 0.000 0.000 Not Reported Not Reported
10/09/2019 11:08 AM 42.08 32.90 14.72 70.34 27.32 32.0 Not Reported 4.92 S 7.16 E 7.16 S No 0.000 No Precipitation 01/01/1970 12:00 AM 01/01/1970 12:00 AM 0.000 0.000 0.000 0.000 0.000 Not Reported Not Reported
10/09/2019 11:24 AM 43.52 33.98 15.98 70.34 27.32 32.0 Not Reported 7.16 SE 6.71 SE 8.28 SE No 0.000 No Precipitation 01/01/1970 12:00 AM 01/01/1970 12:00 AM 0.000 0.000 0.000 0.000 0.000 Not Reported Not Reported
10/09/2019 11:39 AM 43.88 33.80 13.28 70.34 27.32 27.0 Not Reported 6.04 SE 4.92 SE 7.16 N No 0.000 No Precipitation 01/01/1970 12:00 AM 01/01/1970 12:00 AM 0.000 0.000 0.000 0.000 0.000 Not Reported Not Reported
10/09/2019 11:53 AM 44.24 33.80 12.92 70.34 27.32 27.0 Not Reported 3.36 N 5.59 E 5.59 NE No 0.000 No Precipitation 01/01/1970 12:00 AM 01/01/1970 12:00 AM 0.000 0.000 0.000 0.000 0.000 Not Reported Not Reported
10/09/2019 12:09 PM 44.78 34.70 14.72 70.34 27.32 29.0 Not Reported 3.36 SE 2.46 W 7.16 E No 0.000 No Precipitation 01/01/1970 12:00 AM 01/01/1970 12:00 AM 0.000 0.000 0.000 0.000 0.000 Not Reported Not Reported
10/09/2019 12:24 PM 45.32 34.88 14.90 70.34 27.32 29.0 Not Reported 2.24 NE 4.92 SE 5.37 NE No 0.000 No Precipitation 01/01/1970 12:00 AM 01/01/1970 12:00 AM 0.000 0.000 0.000 0.000 0.000 Not Reported Not Reported
10/09/2019 12:38 PM 46.76 36.14 17.42 70.34 27.32 30.0 Not Reported 3.58 SE 4.47 E 7.16 NE No 0.000 No Precipitation 01/01/1970 12:00 AM 01/01/1970 12:00 AM 0.000 0.000 0.000 0.000 0.000 Not Reported Not Reported
10/09/2019 12:53 PM 45.68 35.42 17.24 70.34 27.32 31.0 Not Reported 3.58 E 6.49 SE 8.72 E No 0.000 No Precipitation 01/01/1970 12:00 AM 01/01/1970 12:00 AM 0.000 0.000 0.000 0.000 0.000 Not Reported Not Reported
10/09/2019 01:09 PM 45.32 34.88 15.80 70.34 27.32 30.0 Not Reported 2.91 SE 2.24 SE 7.61 S No 0.000 No Precipitation 01/01/1970 12:00 AM 01/01/1970 12:00 AM 0.000 0.000 0.000 0.000 0.000 Not Reported Not Reported
10/09/2019 01:24 PM 46.76 35.96 16.70 70.34 27.32 29.0 Not Reported 3.58 E 3.58 E 6.93 E No 0.000 No Precipitation 01/01/1970 12:00 AM 01/01/1970 12:00 AM 0.000 0.000 0.000 0.000 0.000 Not Reported Not Reported
10/09/2019 01:39 PM 47.66 36.50 16.34 70.34 27.32 27.0 Not Reported 3.13 SE 4.47 SE 6.93 E No 0.000 No Precipitation 01/01/1970 12:00 AM 01/01/1970 12:00 AM 0.000 0.000 0.000 0.000 0.000 Not Reported Not Reported
10/09/2019 01:53 PM 46.94 35.96 15.44 70.34 27.32 27.0 Not Reported 2.91 NE 4.03 SE 8.05 E No 0.000 No Precipitation 01/01/1970 12:00 AM 01/01/1970 12:00 AM 0.000 0.000 0.000 0.000 0.000 Not Reported Not Reported
10/09/2019 02:09 PM 47.48 36.50 15.80 70.34 27.32 27.0 Not Reported 4.25 S 3.13 S 8.50 S No 0.000 No Precipitation 01/01/1970 12:00 AM 01/01/1970 12:00 AM 0.000 0.000 0.000 0.000 0.000 Not Reported Not Reported
10/09/2019 02:23 PM 48.02 36.32 14.18 70.34 27.32 25.0 Not Reported 4.47 SE 3.80 SW 8.50 S No 0.000 No Precipitation 01/01/1970 12:00 AM 01/01/1970 12:00 AM 0.000 0.000 0.000 0.000 0.000 Not Reported Not Reported
10/09/2019 02:38 PM 48.38 36.50 14.90 70.34 27.32 25.0 Not Reported 3.13 SE 5.37 SW 6.26 SE No 0.000 No Precipitation 01/01/1970 12:00 AM 01/01/1970 12:00 AM 0.000 0.000 0.000 0.000 0.000 Not Reported Not Reported
10/09/2019 02:53 PM 49.28 37.22 15.62 69.80 27.32 25.0 Not Reported 2.68 SE 3.36 SW 6.26 SE No 0.000 No Precipitation 01/01/1970 12:00 AM 01/01/1970 12:00 AM 0.000 0.000 0.000 0.000 0.000 Not Reported Not Reported
10/09/2019 03:08 PM 49.28 37.22 15.80 69.80 27.32 25.0 Not Reported 3.36 S 2.91 NE 8.28 NE No 0.000 No Precipitation 01/01/1970 12:00 AM 01/01/1970 12:00 AM 0.000 0.000 0.000 0.000 0.000 Not Reported Not Reported
10/09/2019 03:24 PM 49.28 37.22 15.62 69.44 27.32 24.0 Not Reported 4.03 E 5.37 S 5.82 N No 0.000 No Precipitation 01/01/1970 12:00 AM 01/01/1970 12:00 AM 0.000 0.000 0.000 0.000 0.000 Not Reported Not Reported
10/09/2019 03:38 PM 50.00 37.22 13.46 68.90 27.32 22.0 Not Reported 2.68 NE 3.13 NE 6.71 S No 0.000 No Precipitation 01/01/1970 12:00 AM 01/01/1970 12:00 AM 0.000 0.000 0.000 0.000 0.000 Not Reported Not Reported
10/09/2019 03:53 PM 48.92 36.50 13.28 68.54 27.32 23.0 Not Reported 4.92 S 6.04 S 6.26 SE No 0.000 No Precipitation 01/01/1970 12:00 AM 01/01/1970 12:00 AM 0.000 0.000 0.000 0.000 0.000 Not Reported Not Reported
10/09/2019 04:11 PM 49.28 37.04 14.18 68.00 27.32 23.0 Not Reported 3.58 SE 0.67 NW 8.28 SE No 0.000 No Precipitation 01/01/1970 12:00 AM 01/01/1970 12:00 AM 0.000 0.000 0.000 0.000 0.000 Not Reported Not Reported
10/09/2019 04:23 PM 50.00 37.04 12.38 67.46 27.32 21.0 Not Reported 2.68 NE 2.01 E 5.37 NE No 0.000 No Precipitation 01/01/1970 12:00 AM 01/01/1970 12:00 AM 0.000 0.000 0.000 0.000 0.000 Not Reported Not Reported
10/09/2019 04:38 PM 50.36 37.22 12.56 66.92 27.32 21.0 Not Reported 1.57 SE 2.24 N 6.04 S No 0.000 No Precipitation 01/01/1970 12:00 AM 01/01/1970 12:00 AM 0.000 0.000 0.000 0.000 0.000 Not Reported Not Reported
10/09/2019 04:53 PM 49.64 36.86 12.38 66.20 27.32 21.0 Not Reported 3.58 SE 4.47 SE 4.92 S No 0.000 No Precipitation 01/01/1970 12:00 AM 01/01/1970 12:00 AM 0.000 0.000 0.000 0.000 0.000 Not Reported Not Reported
10/09/2019 05:08 PM 49.46 36.50 11.48 65.30 27.32 21.0 Not Reported 2.01 SE 2.01 S 5.59 NE No 0.000 No Precipitation 01/01/1970 12:00 AM 01/01/1970 12:00 AM 0.000 0.000 0.000 0.000 0.000 Not Reported Not Reported
10/09/2019 05:23 PM 47.12 35.24 10.76 64.04 27.32 22.0 Not Reported 2.01 N 4.03 N 4.47 E No 0.000 No Precipitation 01/01/1970 12:00 AM 01/01/1970 12:00 AM 0.000 0.000 0.000 0.000 0.000 Not Reported Not Reported
10/09/2019 05:38 PM 46.58 34.88 10.94 63.32 27.32 23.0 Not Reported 0.89 W 0.67 S 3.80 NE No 0.000 No Precipitation 01/01/1970 12:00 AM 01/01/1970 12:00 AM 0.000 0.000 0.000 0.000 0.000 Not Reported Not Reported
10/09/2019 05:53 PM 45.68 34.34 11.48 62.42 27.32 24.0 Not Reported 1.12 NE 0.22 NE 3.36 NE No 0.000 No Precipitation 01/01/1970 12:00 AM 01/01/1970 12:00 AM 0.000 0.000 0.000 0.000 0.000 Not Reported Not Reported
10/09/2019 06:08 PM 43.16 33.44 14.36 61.88 27.32 30.0 Not Reported 1.12 NE 1.34 NE 4.03 E No 0.000 No Precipitation 01/01/1970 12:00 AM 01/01/1970 12:00 AM 0.000 0.000 0.000 0.000 0.000 Not Reported Not Reported
10/09/2019 06:24 PM 40.64 32.00 14.90 61.16 27.32 33.0 Not Reported 1.12 NE 0.00 W 1.79 NE No 0.000 No Precipitation 01/01/1970 12:00 AM 01/01/1970 12:00 AM 0.000 0.000 0.000 0.000 0.000 Not Reported Not Reported
10/09/2019 06:38 PM 39.20 31.46 14.72 60.08 27.32 36.0 Not Reported 0.22 E 0.00 NE 3.58 NE No 0.000 No Precipitation 01/01/1970 12:00 AM 01/01/1970 12:00 AM 0.000 0.000 0.000 0.000 0.000 Not Reported Not Reported
10/09/2019 06:53 PM 36.86 29.84 14.72 59.36 27.32 39.0 Not Reported 0.45 NW 0.00 W 1.34 N No 0.000 No Precipitation 01/01/1970 12:00 AM 01/01/1970 12:00 AM 0.000 0.000 0.000 0.000 0.000 Not Reported Not Reported
10/09/2019 07:08 PM 35.42 28.94 14.90 59.00 27.32 42.0 Not Reported 1.12 NW 2.01 NW 2.01 NW No 0.000 No Precipitation 01/01/1970 12:00 AM 01/01/1970 12:00 AM 0.000 0.000 0.000 0.000 0.000 Not Reported Not Reported
10/09/2019 07:24 PM 35.60 29.30 15.62 58.46 27.32 43.0 Not Reported 0.67 W 1.34 W 1.79 NW No 0.000 No Precipitation 01/01/1970 12:00 AM 01/01/1970 12:00 AM 0.000 0.000 0.000 0.000 0.000 Not Reported Not Reported
10/09/2019 07:38 PM 39.92 30.38 6.44 58.28 27.32 24.0 Not Reported 1.79 N 2.01 NW 4.03 E No 0.000 No Precipitation 01/01/1970 12:00 AM 01/01/1970 12:00 AM 0.000 0.000 0.000 0.000 0.000 Not Reported Not Reported
10/09/2019 07:53 PM 39.74 30.20 6.80 57.92 27.32 24.0 Not Reported 3.58 NE 1.79 S 4.47 NE No 0.000 No Precipitation 01/01/1970 12:00 AM 01/01/1970 12:00 AM 0.000 0.000 0.000 0.000 0.000 Not Reported Not Reported
10/09/2019 08:08 PM 39.20 29.84 5.72 57.74 27.32 24.0 Not Reported 2.24 NE 2.68 W 4.47 NE No 0.000 No Precipitation 01/01/1970 12:00 AM 01/01/1970 12:00 AM 0.000 0.000 0.000 0.000 0.000 Not Reported Not Reported
10/09/2019 08:24 PM 38.66 29.12 4.64 57.38 27.32 23.0 Not Reported 1.34 E 0.67 NE 4.92 E No 0.000 No Precipitation 01/01/1970 12:00 AM 01/01/1970 12:00 AM 0.000 0.000 0.000 0.000 0.000 Not Reported Not Reported
10/09/2019 08:38 PM 37.76 28.58 4.82 56.66 27.32 24.0 Not Reported 1.12 SE 1.12 NE 3.13 NE No 0.000 No Precipitation 01/01/1970 12:00 AM 01/01/1970 12:00 AM 0.000 0.000 0.000 0.000 0.000 Not Reported Not Reported
10/09/2019 08:53 PM 37.22 28.04 3.38 56.48 27.32 23.0 Not Reported 1.79 NE 0.22 SE 3.36 NE No 0.000 No Precipitation 01/01/1970 12:00 AM 01/01/1970 12:00 AM 0.000 0.000 0.000 0.000 0.000 Not Reported Not Reported
10/09/2019 09:08 PM 35.78 27.32 3.92 56.48 27.32 25.0 Not Reported 1.79 N 0.22 E 2.46 NE No 0.000 No Precipitation 01/01/1970 12:00 AM 01/01/1970 12:00 AM 0.000 0.000 0.000 0.000 0.000 Not Reported Not Reported
10/09/2019 09:23 PM 35.06 26.78 3.92 55.58 27.32 26.0 Not Reported 2.68 E 1.57 NW 4.70 E No 0.000 No Precipitation 01/01/1970 12:00 AM 01/01/1970 12:00 AM 0.000 0.000 0.000 0.000 0.000 Not Reported Not Reported
10/09/2019 09:39 PM 33.80 26.06 5.36 55.40 27.32 29.0 Not Reported 0.89 SE 0.22 S 3.13 E No 0.000 No Precipitation 01/01/1970 12:00 AM 01/01/1970 12:00 AM 0.000 0.000 0.000 0.000 0.000 Not Reported Not Reported
10/09/2019 09:53 PM 30.92 24.26 6.44 54.14 27.32 34.0 Not Reported 0.45 W 0.00 W 1.34 S No 0.000 No Precipitation 01/01/1970 12:00 AM 01/01/1970 12:00 AM 0.000 0.000 0.000 0.000 0.000 Not Reported Not Reported
10/09/2019 10:08 PM 31.28 24.26 4.64 53.60 27.32 31.0 Not Reported 0.67 N 1.57 NE 1.57 NE No 0.000 No Precipitation 01/01/1970 12:00 AM 01/01/1970 12:00 AM 0.000 0.000 0.000 0.000 0.000 Not Reported Not Reported
10/09/2019 10:24 PM 32.18 25.16 5.90 53.06 27.32 30.0 Not Reported 2.01 N 2.01 N 3.13 NE No 0.000 No Precipitation 01/01/1970 12:00 AM 01/01/1970 12:00 AM 0.000 0.000 0.000 0.000 0.000 Not Reported Not Reported
10/09/2019 10:39 PM 33.62 26.24 5.72 52.16 27.32 29.0 Not Reported 0.89 W 0.00 W 3.36 E No 0.000 No Precipitation 01/01/1970 12:00 AM 01/01/1970 12:00 AM 0.000 0.000 0.000 0.000 0.000 Not Reported Not Reported
10/09/2019 10:53 PM 33.62 26.24 6.62 52.16 27.32 31.0 Not Reported 1.34 NW 1.34 NE 2.46 NW No 0.000 No Precipitation 01/01/1970 12:00 AM 01/01/1970 12:00 AM 0.000 0.000 0.000 0.000 0.000 Not Reported Not Reported
10/09/2019 11:08 PM 33.44 26.42 7.34 51.62 27.32 32.0 Not Reported 2.01 N 3.13 NE 3.36 E No 0.000 No Precipitation 01/01/1970 12:00 AM 01/01/1970 12:00 AM 0.000 0.000 0.000 0.000 0.000 Not Reported Not Reported
10/09/2019 11:24 PM 33.44 26.60 7.88 51.26 27.32 33.0 Not Reported 1.12 NE 4.25 NE 6.49 NE No 0.000 No Precipitation 01/01/1970 12:00 AM 01/01/1970 12:00 AM 0.000 0.000 0.000 0.000 0.000 Not Reported Not Reported
10/09/2019 11:39 PM 33.26 26.42 8.60 51.08 27.32 34.0 Not Reported 1.57 S 2.68 N 2.68 E No 0.000 No Precipitation 01/01/1970 12:00 AM 01/01/1970 12:00 AM 0.000 0.000 0.000 0.000 0.000 Not Reported Not Reported
10/09/2019 11:53 PM 33.26 26.42 8.78 50.90 27.32 35.0 Not Reported 1.57 N 1.34 NW 3.36 SE No 0.000 No Precipitation 01/01/1970 12:00 AM 01/01/1970 12:00 AM 0.000 0.000 0.000 0.000 0.000 Not Reported Not Reported